createdAt,value
2022-12-15T00:01:59.156Z,14.73
2022-12-15T00:04:44.639Z,14.00
2022-12-15T00:07:30.072Z,15.53
2022-12-15T00:10:15.400Z,15.40
2022-12-15T00:13:00.744Z,14.97
2022-12-15T00:15:46.284Z,13.80
2022-12-15T00:18:31.462Z,14.70
2022-12-15T00:21:18.470Z,15.50
2022-12-15T00:24:04.030Z,16.37
2022-12-15T00:26:49.343Z,14.30
2022-12-15T00:29:34.867Z,14.93
2022-12-15T00:32:20.228Z,15.57
2022-12-15T00:35:05.654Z,13.03
2022-12-15T00:37:51.012Z,13.60
2022-12-15T00:40:17.841Z,14.03
2022-12-15T00:42:44.536Z,15.97
2022-12-15T00:45:16.371Z,13.50
2022-12-15T00:47:43.107Z,14.47
2022-12-15T00:50:28.594Z,14.13
2022-12-15T00:53:14.119Z,13.07
2022-12-15T00:55:59.603Z,13.67
2022-12-15T00:58:45.084Z,13.40
2022-12-15T01:01:30.695Z,13.00
2022-12-15T01:04:15.952Z,12.40
2022-12-15T01:07:01.136Z,12.57
2022-12-15T01:09:46.652Z,13.17
2022-12-15T01:12:32.254Z,11.70
2022-12-15T01:15:17.660Z,12.00
2022-12-15T01:18:03.151Z,11.03
2022-12-15T01:20:34.573Z,11.90
2022-12-15T01:23:01.400Z,13.30
2022-12-15T01:25:29.056Z,13.13
2022-12-15T01:27:55.878Z,12.90
2022-12-15T01:30:25.512Z,13.00
2022-12-15T01:35:32.861Z,12.30
2022-12-15T01:38:00.496Z,11.90
2022-12-15T01:40:45.224Z,11.10
2022-12-15T01:43:18.914Z,11.60
2022-12-15T01:45:48.325Z,11.30
2022-12-15T01:48:20.943Z,10.37
2022-12-15T01:51:10.626Z,12.13
2022-12-15T01:53:45.516Z,11.20
2022-12-15T01:56:16.965Z,12.63
2022-12-15T01:58:45.820Z,12.30
2022-12-15T02:01:12.686Z,11.93
2022-12-15T02:03:41.245Z,11.37
2022-12-15T02:06:09.298Z,11.73
2022-12-15T02:08:37.871Z,12.33
2022-12-15T02:11:35.656Z,11.80
2022-12-15T02:14:02.417Z,11.57
2022-12-15T02:17:06.667Z,12.70
2022-12-15T02:19:48.583Z,11.37
2022-12-15T02:22:47.361Z,11.57
2022-12-15T02:25:39.743Z,11.67
2022-12-15T02:28:16.249Z,11.80
2022-12-15T02:31:22.771Z,11.83
2022-12-15T02:34:00.275Z,11.33
2022-12-15T02:36:33.027Z,11.13
2022-12-15T02:38:59.757Z,11.00
2022-12-15T02:41:35.268Z,11.10
2022-12-15T02:44:08.937Z,12.83
2022-12-15T02:46:49.958Z,12.13
2022-12-15T02:49:46.198Z,12.53
2022-12-15T02:52:29.217Z,10.90
2022-12-15T02:54:58.676Z,11.73
2022-12-15T02:57:32.414Z,11.63
2022-12-15T03:00:06.857Z,10.73
2022-12-15T03:02:35.591Z,12.40
2022-12-15T03:05:02.772Z,12.00
2022-12-15T03:07:29.528Z,11.83
2022-12-15T03:09:59.420Z,12.83
2022-12-15T03:12:26.185Z,11.10
2022-12-15T03:14:53.193Z,11.97
2022-12-15T03:17:19.923Z,12.20
2022-12-15T03:19:46.674Z,12.90
2022-12-15T03:22:16.635Z,12.47
2022-12-15T03:24:43.417Z,12.03
2022-12-15T03:27:10.158Z,12.37
2022-12-15T03:29:36.833Z,12.60
2022-12-15T03:32:03.881Z,13.10
2022-12-15T03:34:30.620Z,14.50
2022-12-15T03:36:57.616Z,11.70
2022-12-15T03:39:24.295Z,12.87
2022-12-15T03:41:50.997Z,12.10
2022-12-15T03:44:17.731Z,14.27
2022-12-15T03:46:44.386Z,13.80
2022-12-15T03:49:11.360Z,13.00
2022-12-15T03:51:38.157Z,13.53
2022-12-15T03:54:04.840Z,13.60
2022-12-15T03:56:32.509Z,13.37
2022-12-15T03:58:59.208Z,12.83
2022-12-15T04:01:34.122Z,12.60
2022-12-15T04:04:02.284Z,12.20
2022-12-15T04:06:30.034Z,14.07
2022-12-15T04:08:56.906Z,12.90
2022-12-15T04:11:23.616Z,12.10
2022-12-15T04:13:50.276Z,12.27
2022-12-15T04:16:20.080Z,11.80
2022-12-15T04:19:07.645Z,13.80
2022-12-15T04:21:34.320Z,13.03
2022-12-15T04:24:19.427Z,13.27
2022-12-15T04:27:04.967Z,12.93
2022-12-15T04:29:50.355Z,13.43
2022-12-15T04:32:35.809Z,14.00
2022-12-15T04:35:21.408Z,13.20
2022-12-15T04:38:06.809Z,14.80
2022-12-15T04:40:52.334Z,14.17
2022-12-15T04:43:37.833Z,13.13
2022-12-15T04:46:23.341Z,13.70
2022-12-15T04:49:08.612Z,13.30
2022-12-15T04:51:54.127Z,13.97
2022-12-15T04:54:39.733Z,13.30
2022-12-15T04:57:25.763Z,12.77
2022-12-15T05:00:11.373Z,14.43
2022-12-15T05:02:56.863Z,13.60
2022-12-15T05:05:42.344Z,13.33
2022-12-15T05:08:27.892Z,12.30
2022-12-15T05:11:13.209Z,14.97
2022-12-15T05:13:58.648Z,13.53
2022-12-15T05:16:44.165Z,14.23
2022-12-15T05:19:29.492Z,14.33
2022-12-15T05:22:14.989Z,14.57
2022-12-15T05:25:00.631Z,13.63
2022-12-15T05:27:46.012Z,13.83
2022-12-15T05:30:31.408Z,13.93
2022-12-15T05:32:58.184Z,14.70
2022-12-15T05:35:25.052Z,15.47
2022-12-15T05:37:51.729Z,14.80
2022-12-15T05:40:18.386Z,15.10
2022-12-15T05:42:49.955Z,15.47
2022-12-15T05:45:17.111Z,14.03
2022-12-15T05:47:43.823Z,14.77
2022-12-15T05:50:10.653Z,15.07
2022-12-15T05:52:37.323Z,14.17
2022-12-15T05:55:04.216Z,12.83
2022-12-15T05:57:30.917Z,13.50
2022-12-15T05:59:57.649Z,15.00
2022-12-15T06:02:24.361Z,15.33
2022-12-15T06:04:51.245Z,16.37
2022-12-15T06:07:17.954Z,15.00
2022-12-15T06:09:44.636Z,16.17
2022-12-15T06:12:11.309Z,13.57
2022-12-15T06:14:38.308Z,15.23
2022-12-15T06:17:05.090Z,14.73
2022-12-15T06:19:31.839Z,16.50
2022-12-15T06:21:58.631Z,16.47
2022-12-15T06:24:26.096Z,15.27
2022-12-15T06:26:52.850Z,14.87
2022-12-15T06:29:19.591Z,14.40
2022-12-15T06:31:46.780Z,15.10
2022-12-15T06:34:15.725Z,15.20
2022-12-15T06:36:42.803Z,13.90
2022-12-15T06:39:12.309Z,16.73
2022-12-15T06:41:39.826Z,13.87
2022-12-15T06:44:06.869Z,15.30
2022-12-15T06:46:35.179Z,14.53
2022-12-15T06:49:02.056Z,14.97
2022-12-15T06:51:29.190Z,15.27
2022-12-15T06:53:56.422Z,15.47
2022-12-15T06:56:34.085Z,15.27
2022-12-15T06:59:03.558Z,15.00
2022-12-15T07:01:31.071Z,16.10
2022-12-15T07:04:00.422Z,14.70
2022-12-15T07:06:28.307Z,16.40
2022-12-15T07:08:56.827Z,13.40
2022-12-15T07:11:23.983Z,13.80
2022-12-15T07:13:54.295Z,16.20
2022-12-15T07:16:22.592Z,14.80
2022-12-15T07:18:49.834Z,14.80
2022-12-15T07:21:17.351Z,14.67
2022-12-15T07:24:00.927Z,14.33
2022-12-15T07:26:28.775Z,14.83
2022-12-15T07:28:56.277Z,14.07
2022-12-15T07:31:23.490Z,14.80
2022-12-15T07:33:52.422Z,13.70
2022-12-15T07:36:19.565Z,13.60
2022-12-15T07:38:50.007Z,14.40
2022-12-15T07:41:18.383Z,15.73
2022-12-15T07:43:46.603Z,14.20
2022-12-15T07:46:13.424Z,14.93
2022-12-15T07:48:40.184Z,14.30
2022-12-15T07:51:12.320Z,16.23
2022-12-15T07:53:42.376Z,15.63
2022-12-15T07:56:10.107Z,15.30
2022-12-15T07:58:37.960Z,14.73
2022-12-15T08:01:10.494Z,15.33
2022-12-15T08:03:37.999Z,14.80
2022-12-15T08:06:06.726Z,14.17
2022-12-15T08:08:34.571Z,14.30
2022-12-15T08:11:09.357Z,15.57
2022-12-15T08:14:02.125Z,15.37
2022-12-15T08:16:24.595Z,15.00
2022-12-15T08:18:51.325Z,15.90
2022-12-15T08:21:18.571Z,15.70
2022-12-15T08:23:45.533Z,15.37
2022-12-15T08:26:15.115Z,15.57
2022-12-15T08:28:42.843Z,15.90
2022-12-15T08:31:12.959Z,16.30
2022-12-15T08:33:40.135Z,16.93
2022-12-15T08:36:09.404Z,15.40
2022-12-15T08:38:38.652Z,16.70
2022-12-15T08:41:14.392Z,15.00
2022-12-15T08:43:48.163Z,15.70
2022-12-15T08:46:17.380Z,16.97
2022-12-15T08:48:44.970Z,15.63
2022-12-15T08:51:12.224Z,16.50
2022-12-15T08:53:39.038Z,15.80
2022-12-15T08:56:15.914Z,15.63
2022-12-15T08:58:43.074Z,15.93
2022-12-15T09:01:20.572Z,16.47
2022-12-15T09:03:50.540Z,16.00
2022-12-15T09:06:32.574Z,16.13
2022-12-15T09:09:02.691Z,18.03
2022-12-15T09:11:30.697Z,16.97
2022-12-15T09:13:58.047Z,16.53
2022-12-15T09:16:25.659Z,16.10
2022-12-15T09:18:57.536Z,17.40
2022-12-15T09:21:26.766Z,16.73
2022-12-15T09:23:58.427Z,17.10
2022-12-15T09:26:25.146Z,15.90
2022-12-15T09:28:53.068Z,16.67
2022-12-15T09:31:22.944Z,16.13
2022-12-15T09:33:51.971Z,17.83
2022-12-15T09:36:18.983Z,15.93
2022-12-15T09:38:45.797Z,16.73
2022-12-15T09:41:15.333Z,16.43
2022-12-15T09:43:49.933Z,18.70
2022-12-15T09:46:28.369Z,17.90
2022-12-15T09:48:59.897Z,16.63
2022-12-15T09:51:36.409Z,16.97
2022-12-15T09:54:03.665Z,18.23
2022-12-15T09:56:49.933Z,17.90
2022-12-15T09:59:26.393Z,18.50
2022-12-15T10:02:38.907Z,18.00
2022-12-15T10:06:06.180Z,16.47
2022-12-15T10:08:50.752Z,18.43
2022-12-15T10:11:50.300Z,17.47
2022-12-15T10:14:50.266Z,17.83
2022-12-15T10:17:26.838Z,16.20
2022-12-15T10:20:06.381Z,17.83
2022-12-15T10:22:36.884Z,17.40
2022-12-15T10:25:30.142Z,18.37
2022-12-15T10:28:16.121Z,18.00
2022-12-15T10:30:52.148Z,18.70
2022-12-15T10:33:25.044Z,17.10
2022-12-15T10:35:55.660Z,19.23
2022-12-15T10:38:31.288Z,19.30
2022-12-15T10:41:04.277Z,19.00
2022-12-15T10:43:43.815Z,19.60
2022-12-15T10:46:20.601Z,18.07
2022-12-15T10:49:07.600Z,17.90
2022-12-15T10:51:42.733Z,20.07
2022-12-15T10:54:15.488Z,18.53
2022-12-15T10:56:54.631Z,18.40
2022-12-15T10:59:31.879Z,19.40
2022-12-15T11:02:24.029Z,18.20
2022-12-15T11:05:17.100Z,18.93
2022-12-15T11:07:53.283Z,19.47
2022-12-15T11:10:50.511Z,18.93
2022-12-15T11:13:22.783Z,18.27
2022-12-15T11:15:55.130Z,20.10
2022-12-15T11:18:36.872Z,19.20
2022-12-15T11:21:24.641Z,19.17
2022-12-15T11:24:02.487Z,18.80
2022-12-15T11:26:49.112Z,19.40
2022-12-15T11:29:36.834Z,18.50
2022-12-15T11:32:07.268Z,19.27
2022-12-15T11:34:47.648Z,18.53
2022-12-15T11:37:36.910Z,18.13
2022-12-15T11:40:16.987Z,18.57
2022-12-15T11:43:01.962Z,17.73
2022-12-15T11:45:59.824Z,18.80
2022-12-15T11:48:46.594Z,18.93
2022-12-15T11:51:26.061Z,19.50
2022-12-15T11:54:18.600Z,18.87
2022-12-15T11:56:56.638Z,20.47
2022-12-15T11:59:55.015Z,21.03
2022-12-15T12:02:48.317Z,17.23
2022-12-15T12:05:43.955Z,19.20
2022-12-15T12:08:35.712Z,17.90
2022-12-15T12:11:23.896Z,19.20
2022-12-15T12:14:12.203Z,17.17
2022-12-15T12:16:41.921Z,18.33
2022-12-15T12:19:20.114Z,16.53
2022-12-15T12:21:51.117Z,17.37
2022-12-15T12:24:50.811Z,17.40
2022-12-15T12:27:39.555Z,15.90
2022-12-15T12:30:11.972Z,16.67
2022-12-15T12:33:03.182Z,18.15
2022-12-15T12:35:52.862Z,17.73
2022-12-15T12:38:31.236Z,17.50
2022-12-15T12:41:11.675Z,16.37
2022-12-15T12:43:50.991Z,17.00
2022-12-15T12:46:40.475Z,16.47
2022-12-15T12:49:26.274Z,16.70
2022-12-15T12:51:55.813Z,16.87
2022-12-15T12:54:34.379Z,16.40
2022-12-15T12:57:11.145Z,18.20
2022-12-15T12:59:57.925Z,17.73
2022-12-15T13:02:25.789Z,16.67
2022-12-15T13:05:00.001Z,17.53
2022-12-15T13:07:38.887Z,16.60
2022-12-15T13:10:08.633Z,16.50
2022-12-15T13:15:41.169Z,14.43
2022-12-15T13:18:21.220Z,15.80
2022-12-15T13:20:50.874Z,15.73
2022-12-15T13:23:24.142Z,15.80
2022-12-15T13:25:56.785Z,15.23
2022-12-15T13:28:23.941Z,13.63
2022-12-15T13:34:18.083Z,14.47
2022-12-15T13:36:54.298Z,14.93
2022-12-15T13:39:28.018Z,15.00
2022-12-15T13:42:32.163Z,16.20
2022-12-15T13:44:51.971Z,15.77
2022-12-15T13:47:30.891Z,15.57
2022-12-15T13:50:18.253Z,14.80
2022-12-15T13:55:46.238Z,15.47
2022-12-15T13:58:19.375Z,15.10
2022-12-15T14:00:57.059Z,15.57
2022-12-15T14:03:24.219Z,16.10
2022-12-15T14:05:59.283Z,14.80
2022-12-15T14:08:28.748Z,15.20
2022-12-15T14:10:58.198Z,15.30
2022-12-15T14:13:33.845Z,15.40
2022-12-15T14:16:21.915Z,14.07
2022-12-15T14:19:05.177Z,14.87
2022-12-15T14:21:31.906Z,15.63
2022-12-15T14:24:37.466Z,16.40
2022-12-15T14:26:45.384Z,14.37
2022-12-15T14:29:13.146Z,15.40
2022-12-15T14:31:40.716Z,16.17
2022-12-15T14:34:13.608Z,15.80
2022-12-15T14:36:42.127Z,15.27
2022-12-15T14:39:34.771Z,14.53
2022-12-15T14:42:02.938Z,17.40
2022-12-15T14:44:38.074Z,15.83
2022-12-15T14:47:22.302Z,16.03
2022-12-15T14:49:50.200Z,16.33
2022-12-15T14:52:29.880Z,13.50
2022-12-15T14:55:02.273Z,15.50
2022-12-15T14:57:45.275Z,16.47
2022-12-15T15:00:48.778Z,16.53
2022-12-15T15:03:07.366Z,15.83
2022-12-15T15:03:11.640Z,14.47
2022-12-15T15:03:19.976Z,16.37
2022-12-15T15:05:51.031Z,17.47
2022-12-15T15:08:26.648Z,17.10
2022-12-15T15:10:56.170Z,15.47
2022-12-15T15:13:39.377Z,15.90
2022-12-15T15:16:13.043Z,16.17
2022-12-15T15:18:41.343Z,14.57
2022-12-15T15:21:14.187Z,14.27
2022-12-15T15:23:40.957Z,16.43
2022-12-15T15:26:10.522Z,16.17
2022-12-15T15:28:42.006Z,14.67
2022-12-15T15:31:29.106Z,16.70
2022-12-15T15:33:57.978Z,16.80
2022-12-15T15:36:31.359Z,14.90
2022-12-15T15:38:58.335Z,16.57
2022-12-15T15:41:30.829Z,16.87
2022-12-15T15:43:59.638Z,16.00
2022-12-15T15:46:29.932Z,16.73
2022-12-15T15:49:00.864Z,16.33
2022-12-15T15:51:29.340Z,15.87
2022-12-15T15:54:04.657Z,16.10
2022-12-15T15:56:31.515Z,16.27
2022-12-15T15:59:02.495Z,16.80
2022-12-15T16:01:29.333Z,18.60
2022-12-15T16:03:56.299Z,18.30
2022-12-15T16:06:24.231Z,18.20
2022-12-15T16:08:53.867Z,17.87
2022-12-15T16:11:26.591Z,18.63
2022-12-15T16:13:53.657Z,18.00
2022-12-15T16:16:23.861Z,19.47
2022-12-15T16:18:50.723Z,19.77
2022-12-15T16:21:19.826Z,21.80
2022-12-15T16:23:48.459Z,22.67
2022-12-15T16:26:17.884Z,23.60
2022-12-15T16:28:47.804Z,23.67
2022-12-15T16:31:27.080Z,26.00
2022-12-15T16:33:53.963Z,25.83
2022-12-15T16:36:20.776Z,27.70
2022-12-15T16:38:47.504Z,28.77
2022-12-15T16:41:17.513Z,31.07
2022-12-15T16:43:48.292Z,30.37
2022-12-15T16:46:16.159Z,29.67
2022-12-15T16:48:43.485Z,28.77
2022-12-15T16:51:34.240Z,29.67
2022-12-15T16:54:01.273Z,30.40
2022-12-15T16:56:28.005Z,28.63
2022-12-15T16:59:15.511Z,28.97
2022-12-15T17:01:44.492Z,27.43
2022-12-15T17:04:12.056Z,30.60
2022-12-15T17:06:39.180Z,29.17
2022-12-15T17:09:08.839Z,28.67
2022-12-15T17:11:35.799Z,29.23
2022-12-15T17:14:02.535Z,27.30
2022-12-15T17:16:30.012Z,31.27
2022-12-15T17:18:56.771Z,30.57
2022-12-15T17:21:32.005Z,29.63
2022-12-15T17:24:04.496Z,30.67
2022-12-15T17:26:34.791Z,30.87
2022-12-15T17:29:08.188Z,32.50
2022-12-15T17:31:36.159Z,30.83
2022-12-15T17:34:32.888Z,30.83
2022-12-15T17:37:04.837Z,29.70
2022-12-15T17:39:34.105Z,30.63
2022-12-15T17:42:02.080Z,32.40
2022-12-15T17:44:34.477Z,32.90
2022-12-15T17:47:04.553Z,31.90
2022-12-15T17:49:35.474Z,33.80
2022-12-15T17:52:06.616Z,29.23
2022-12-15T17:54:34.056Z,30.40
2022-12-15T17:57:00.944Z,27.83
2022-12-15T17:59:27.672Z,31.47
2022-12-15T18:01:57.424Z,30.90
2022-12-15T18:04:24.489Z,31.60
2022-12-15T18:06:56.644Z,32.70
2022-12-15T18:09:27.915Z,32.97
2022-12-15T18:11:54.690Z,32.07
2022-12-15T18:14:23.023Z,30.73
2022-12-15T18:16:50.214Z,29.97
2022-12-15T18:19:16.987Z,32.57
2022-12-15T18:21:43.844Z,32.80
2022-12-15T18:24:17.201Z,34.60
2022-12-15T18:26:44.755Z,36.57
2022-12-15T18:29:19.920Z,39.07
2022-12-15T18:31:48.557Z,54.50
2022-12-15T18:34:21.445Z,38.63
2022-12-15T18:36:48.395Z,33.03
2022-12-15T18:39:23.787Z,29.90
2022-12-15T18:41:52.641Z,31.20
2022-12-15T18:44:25.249Z,30.30
2022-12-15T18:46:52.617Z,30.07
2022-12-15T18:49:22.400Z,31.20
2022-12-15T18:51:49.460Z,32.20
2022-12-15T18:54:22.503Z,31.63
2022-12-15T18:56:49.875Z,31.57
2022-12-15T18:59:17.874Z,29.17
2022-12-15T19:01:46.431Z,35.17
2022-12-15T19:04:13.752Z,31.33
2022-12-15T19:06:41.039Z,34.37
2022-12-15T19:09:17.079Z,30.80
2022-12-15T19:12:18.244Z,28.40
2022-12-15T19:14:47.570Z,29.47
2022-12-15T19:17:36.302Z,28.90
2022-12-15T19:20:24.650Z,29.67
2022-12-15T19:22:52.247Z,29.13
2022-12-15T19:25:27.983Z,33.07
2022-12-15T19:27:59.145Z,32.47
2022-12-15T19:30:30.024Z,32.60
2022-12-15T19:32:58.649Z,35.17
2022-12-15T19:35:27.456Z,36.20
2022-12-15T19:37:57.484Z,35.73
2022-12-15T19:40:27.778Z,33.43
2022-12-15T19:42:55.520Z,34.90
2022-12-15T19:45:27.479Z,32.97
2022-12-15T19:50:31.256Z,35.20
2022-12-15T19:53:04.408Z,36.23
2022-12-15T19:55:33.717Z,34.93
2022-12-15T19:58:06.703Z,34.83
2022-12-15T20:00:33.407Z,32.57
2022-12-15T20:03:00.204Z,34.40
2022-12-15T20:05:27.005Z,32.60
2022-12-15T20:07:54.777Z,31.80
2022-12-15T20:10:31.863Z,36.00
2022-12-15T20:13:00.919Z,35.37
2022-12-15T20:15:27.981Z,35.00
2022-12-15T20:17:58.003Z,32.80
2022-12-15T20:20:27.952Z,33.57
2022-12-15T20:22:57.309Z,34.00
2022-12-15T20:25:28.060Z,32.73
2022-12-15T20:27:55.023Z,34.80
2022-12-15T20:30:27.676Z,35.03
2022-12-15T20:32:54.824Z,35.13
2022-12-15T20:35:22.704Z,31.67
2022-12-15T20:37:50.967Z,31.03
2022-12-15T20:40:26.924Z,29.67
2022-12-15T20:42:54.908Z,32.27
2022-12-15T20:45:25.109Z,35.20
2022-12-15T20:50:32.187Z,31.70
2022-12-15T20:52:59.160Z,32.83
2022-12-15T20:55:25.949Z,33.40
2022-12-15T20:57:53.074Z,34.10
2022-12-15T21:00:20.897Z,32.37
2022-12-15T21:02:48.454Z,33.83
2022-12-15T21:05:22.083Z,32.03
2022-12-15T21:07:50.035Z,31.60
2022-12-15T21:10:19.532Z,31.40
2022-12-15T21:12:48.341Z,32.60
2022-12-15T21:15:21.210Z,32.17
2022-12-15T21:17:57.309Z,33.23
2022-12-15T21:20:30.540Z,31.90
2022-12-15T21:22:57.717Z,31.00
2022-12-15T21:25:26.350Z,34.23
2022-12-15T21:27:53.101Z,32.50
2022-12-15T21:30:22.608Z,30.07
2022-12-15T21:32:50.566Z,30.80
2022-12-15T21:35:19.433Z,32.33
2022-12-15T21:37:51.682Z,33.00
2022-12-15T21:40:24.935Z,31.43
2022-12-15T21:42:52.978Z,31.97
2022-12-15T21:45:25.256Z,34.77
2022-12-15T21:50:18.800Z,33.67
2022-12-15T21:52:46.793Z,33.20
2022-12-15T21:55:18.182Z,33.23
2022-12-15T21:57:45.692Z,29.97
2022-12-15T22:00:15.220Z,29.50
2022-12-15T22:02:42.191Z,30.73
2022-12-15T22:05:15.971Z,29.90
2022-12-15T22:07:42.729Z,29.60
2022-12-15T22:10:10.210Z,27.10
2022-12-15T22:12:38.158Z,27.83
2022-12-15T22:15:14.181Z,28.07
2022-12-15T22:17:41.855Z,25.43
2022-12-15T22:20:20.995Z,29.20
2022-12-15T22:22:48.397Z,29.40
2022-12-15T22:25:21.147Z,28.30
2022-12-15T22:27:48.827Z,29.60
2022-12-15T22:30:21.725Z,30.20
2022-12-15T22:32:48.968Z,27.23
2022-12-15T22:35:17.812Z,28.20
2022-12-15T22:37:45.474Z,29.50
2022-12-15T22:40:13.625Z,30.97
2022-12-15T22:42:44.113Z,30.33
2022-12-15T22:45:19.510Z,30.10
2022-12-15T22:50:24.077Z,31.00
2022-12-15T22:52:50.911Z,30.10
2022-12-15T22:55:20.609Z,30.27
2022-12-15T22:57:56.151Z,30.47
2022-12-15T23:00:22.996Z,31.13
2022-12-15T23:02:49.857Z,29.80
2022-12-15T23:05:19.543Z,30.80
2022-12-15T23:07:47.099Z,31.00
2022-12-15T23:10:35.294Z,28.33
2022-12-15T23:13:02.163Z,29.10
2022-12-15T23:15:47.945Z,30.97
2022-12-15T23:18:15.017Z,30.90
2022-12-15T23:20:41.847Z,30.33
2022-12-15T23:23:09.880Z,31.77
2022-12-15T23:25:36.824Z,29.10
2022-12-15T23:28:04.368Z,30.23
2022-12-15T23:30:31.177Z,30.57
2022-12-15T23:32:57.876Z,30.47
2022-12-15T23:35:24.567Z,29.10
2022-12-15T23:37:51.406Z,30.40
2022-12-15T23:40:24.365Z,30.57
2022-12-15T23:42:51.890Z,27.57
2022-12-15T23:45:20.238Z,30.13
2022-12-15T23:50:24.292Z,27.73
2022-12-15T23:52:51.983Z,29.30
2022-12-15T23:55:19.293Z,26.43
2022-12-15T23:57:46.483Z,28.90
